Time;durP1;ratioP1;P1;durP2;ratioP2;P2;SDS_P1;SDS_P2;PMS_P1;PMS_P2;Temp;Humidity;BMP_temperature;BMP_pressure;BME280_temperature;BME280_humidity;BME280_pressure;Samples;Min_cycle;Max_cycle;Signal;HPM_P1;HPM_P2
2021/09/04 00:02:46;;;;;;;12.10;7.33;;;;;;;17.60;100.00;99194.28;4520181;76;28448;-83
2021/09/04 00:08:47;;;;;;;13.55;7.53;;;;;;;17.67;100.00;99189.39;4506673;77;28484;-82
2021/09/04 00:14:49;;;;;;;12.23;7.17;;;;;;;17.75;100.00;99188.02;4489520;77;28631;-83
2021/09/04 00:20:51;;;;;;;14.18;7.80;;;;;;;17.60;100.00;99184.24;4522628;76;28483;-84
2021/09/04 00:26:52;;;;;;;12.13;7.37;;;;;;;17.60;100.00;99185.60;4516866;77;28495;-83
2021/09/04 00:32:53;;;;;;;13.13;6.87;;;;;;;17.48;100.00;99186.41;4521367;76;28497;-83
2021/09/04 00:38:55;;;;;;;13.28;7.15;;;;;;;17.46;100.00;99186.70;4511480;76;28549;-83
2021/09/04 00:44:56;;;;;;;11.78;6.80;;;;;;;17.24;100.00;99181.01;4507061;77;28496;-83
2021/09/04 00:50:58;;;;;;;13.22;7.35;;;;;;;17.14;100.00;99187.23;4529893;77;28521;-83
2021/09/04 00:56:59;;;;;;;10.98;7.35;;;;;;;17.18;100.00;99182.61;4495329;77;28543;-81
2021/09/04 01:03:01;;;;;;;16.10;7.33;;;;;;;17.16;100.00;99180.72;4485965;77;28484;-83
2021/09/04 01:09:03;;;;;;;12.68;7.40;;;;;;;17.20;100.00;99175.03;4546323;76;28522;-83
2021/09/04 01:15:09;;;;;;;12.15;7.22;;;;;;;17.04;100.00;99172.86;4502044;76;28463;-82
2021/09/04 01:21:11;;;;;;;13.60;7.25;;;;;;;16.88;100.00;99172.80;4546191;76;28441;-82
2021/09/04 01:27:12;;;;;;;13.83;8.33;;;;;;;16.77;100.00;99176.05;4527080;76;28491;-82
2021/09/04 01:33:14;;;;;;;13.43;7.25;;;;;;;16.73;100.00;99179.02;4522901;76;28440;-82
2021/09/04 01:39:15;;;;;;;11.28;6.62;;;;;;;16.72;100.00;99185.53;4507404;76;28535;-83
2021/09/04 01:45:18;;;;;;;10.32;6.62;;;;;;;16.62;100.00;99183.62;4535981;76;28448;-82
2021/09/04 01:51:19;;;;;;;11.40;6.65;;;;;;;16.68;100.00;99181.17;4535668;76;28457;-82
2021/09/04 01:57:20;;;;;;;11.97;6.70;;;;;;;16.56;100.00;99180.61;4518248;76;28445;-82
2021/09/04 02:03:22;;;;;;;12.07;7.17;;;;;;;16.60;100.00;99170.84;4551895;77;28520;-82
2021/09/04 02:09:23;;;;;;;12.33;6.75;;;;;;;16.78;100.00;99168.18;4609299;77;28535;-82
2021/09/04 02:15:24;;;;;;;13.93;6.62;;;;;;;16.64;100.00;99158.38;4607576;77;28540;-82
2021/09/04 02:21:26;;;;;;;11.10;6.55;;;;;;;16.80;100.00;99166.53;4587904;77;28496;-82
2021/09/04 02:27:28;;;;;;;13.18;7.50;;;;;;;16.82;100.00;99171.17;4564007;78;28595;-82
2021/09/04 02:33:30;;;;;;;17.42;10.00;;;;;;;16.79;100.00;99173.88;4566500;78;28500;-82
2021/09/04 02:39:32;;;;;;;14.45;8.28;;;;;;;17.06;100.00;99176.91;4567252;77;28560;-81
2021/09/04 02:45:33;;;;;;;10.78;7.15;;;;;;;17.09;100.00;99168.77;4570932;78;28468;-81
2021/09/04 02:51:37;;;;;;;13.58;7.70;;;;;;;16.91;100.00;99165.45;4571252;77;28469;-81
2021/09/04 02:57:39;;;;;;;13.32;7.78;;;;;;;16.82;100.00;99172.53;4570265;77;28433;-82
2021/09/04 03:03:41;;;;;;;16.27;8.03;;;;;;;16.78;100.00;99171.42;4546245;78;28485;-80
2021/09/04 03:09:43;;;;;;;15.65;9.08;;;;;;;16.93;100.00;99174.17;4519488;78;28435;-81
2021/09/04 03:15:45;;;;;;;14.95;8.58;;;;;;;16.90;100.00;99182.04;4471904;79;28491;-83
2021/09/04 03:21:47;;;;;;;15.58;8.60;;;;;;;16.69;100.00;99177.93;4514828;78;28453;-82
2021/09/04 03:27:48;;;;;;;16.30;8.98;;;;;;;16.79;100.00;99165.73;4577618;77;28465;-82
2021/09/04 03:33:50;;;;;;;14.28;8.53;;;;;;;16.80;100.00;99159.74;4573842;77;28543;-83
2021/09/04 03:39:51;;;;;;;18.02;8.70;;;;;;;16.76;100.00;99158.10;4549018;77;28545;-82
2021/09/04 03:45:53;;;;;;;15.98;8.60;;;;;;;16.80;100.00;99163.81;4551429;77;28449;-81
2021/09/04 03:51:54;;;;;;;15.68;9.53;;;;;;;16.57;100.00;99165.42;4563817;78;28511;-82
2021/09/04 03:57:56;;;;;;;14.43;8.60;;;;;;;16.57;100.00;99170.85;4562923;77;28453;-82
2021/09/04 04:03:57;;;;;;;14.98;8.83;;;;;;;16.68;100.00;99179.81;4556071;77;28441;-82
2021/09/04 04:09:59;;;;;;;15.03;9.05;;;;;;;16.70;100.00;99187.70;4517805;77;28471;-83
2021/09/04 04:16:02;;;;;;;15.65;8.68;;;;;;;16.74;100.00;99183.35;4534423;77;28509;-83
2021/09/04 04:22:04;;;;;;;15.38;8.93;;;;;;;16.65;100.00;99178.17;4563433;78;28436;-84
2021/09/04 04:28:05;;;;;;;14.60;8.95;;;;;;;16.73;100.00;99181.73;4509060;78;28454;-83
2021/09/04 04:34:07;;;;;;;14.30;8.85;;;;;;;16.57;100.00;99182.23;4480700;78;28464;-83
2021/09/04 04:40:10;;;;;;;14.90;8.05;;;;;;;16.62;100.00;99186.33;4481530;78;28463;-82
2021/09/04 04:46:12;;;;;;;13.38;8.25;;;;;;;16.81;100.00;99188.52;4488122;78;28467;-82
2021/09/04 04:52:14;;;;;;;14.98;8.70;;;;;;;16.72;100.00;99198.58;4543629;77;28510;-82
2021/09/04 04:58:15;;;;;;;16.67;9.00;;;;;;;17.03;100.00;99209.25;4558394;77;28539;-83
2021/09/04 05:04:17;;;;;;;16.17;8.25;;;;;;;17.04;100.00;99198.66;4504937;77;28499;-83
2021/09/04 05:10:20;;;;;;;15.30;8.43;;;;;;;17.40;100.00;99191.33;4552267;77;28427;-83
2021/09/04 05:16:22;;;;;;;15.93;9.03;;;;;;;17.77;100.00;99191.27;4562800;77;28536;-84
2021/09/04 05:22:24;;;;;;;16.73;8.88;;;;;;;18.21;100.00;99191.97;4562260;78;28476;-82
2021/09/04 05:28:26;;;;;;;15.63;9.40;;;;;;;18.23;100.00;99202.59;4501550;77;28503;-81
2021/09/04 05:34:27;;;;;;;14.70;9.05;;;;;;;18.30;100.00;99203.11;4477140;79;28464;-81
2021/09/04 05:40:28;;;;;;;14.80;9.10;;;;;;;18.51;100.00;99198.38;4476824;79;28541;-84
2021/09/04 05:46:29;;;;;;;14.87;8.85;;;;;;;18.52;100.00;99196.48;4477214;79;28466;-82
2021/09/04 05:52:31;;;;;;;14.30;7.92;;;;;;;18.52;100.00;99200.56;4476792;79;28498;-83
2021/09/04 05:58:32;;;;;;;15.30;9.45;;;;;;;19.05;100.00;99201.91;4560637;77;28527;-83
2021/09/04 06:04:36;;;;;;;18.17;10.50;;;;;;;19.16;100.00;99206.17;4563127;77;28591;-83
2021/09/04 06:10:38;;;;;;;19.07;10.05;;;;;;;19.18;100.00;99214.88;4569060;77;28511;-83
2021/09/04 06:16:39;;;;;;;17.77;9.73;;;;;;;19.23;100.00;99216.22;4569147;77;28463;-81
2021/09/04 06:22:40;;;;;;;17.92;9.65;;;;;;;19.53;100.00;99214.08;4569497;78;28531;-78
2021/09/04 06:28:42;;;;;;;21.62;9.98;;;;;;;19.76;100.00;99213.30;4578893;77;28449;-80
2021/09/04 06:34:43;;;;;;;19.90;11.00;;;;;;;19.97;100.00;99216.37;4569400;77;28457;-81
2021/09/04 06:40:44;;;;;;;18.25;11.20;;;;;;;20.29;100.00;99217.11;4569308;78;28498;-81
2021/09/04 06:46:45;;;;;;;19.48;10.53;;;;;;;20.11;100.00;99223.33;4569042;77;28465;-81
2021/09/04 06:52:47;;;;;;;20.70;12.07;;;;;;;20.37;100.00;99223.05;4569185;78;28571;-81
2021/09/04 06:58:48;;;;;;;21.17;10.75;;;;;;;20.33;100.00;99237.25;4568811;78;28523;-79
2021/09/04 07:04:50;;;;;;;22.02;11.78;;;;;;;20.45;100.00;99240.12;4524139;77;28468;-78
2021/09/04 07:10:51;;;;;;;20.23;12.05;;;;;;;20.46;100.00;99251.30;4504204;78;28483;-79
2021/09/04 07:16:52;;;;;;;21.90;12.68;;;;;;;20.95;100.00;99243.88;4540595;78;28481;-80
2021/09/04 07:22:53;;;;;;;22.67;12.93;;;;;;;21.23;100.00;99248.09;4540623;78;28451;-78
2021/09/04 07:28:55;;;;;;;20.45;12.05;;;;;;;21.40;100.00;99230.34;4540477;78;28437;-78
2021/09/04 07:34:57;;;;;;;19.92;12.70;;;;;;;21.59;100.00;99239.86;4539971;78;28529;-79
2021/09/04 07:40:58;;;;;;;22.17;12.53;;;;;;;21.56;100.00;99241.83;4540194;78;28474;-78
2021/09/04 07:47:00;;;;;;;21.25;11.80;;;;;;;21.74;100.00;99248.39;4540146;78;28450;-79
2021/09/04 07:53:01;;;;;;;21.35;12.63;;;;;;;21.96;100.00;99252.38;4535825;78;28502;-80
2021/09/04 07:59:03;;;;;;;23.22;13.43;;;;;;;21.82;100.00;99252.38;4593999;77;28464;-78
2021/09/04 08:05:05;;;;;;;20.45;12.47;;;;;;;22.15;97.62;99261.89;4592037;77;28495;-83
2021/09/04 08:11:06;;;;;;;22.20;12.95;;;;;;;22.56;91.79;99269.87;4529374;78;28822;-85
2021/09/04 08:17:08;;;;;;;20.60;13.22;;;;;;;22.25;95.04;99271.28;4532366;78;28466;-80
2021/09/04 08:23:09;;;;;;;19.70;13.20;;;;;;;22.12;97.10;99277.53;4532732;78;28488;-83
2021/09/04 08:29:11;;;;;;;21.45;14.07;;;;;;;22.19;95.21;99277.16;4498991;77;28471;-82
2021/09/04 08:35:12;;;;;;;19.62;12.60;;;;;;;22.52;93.23;99271.03;4522185;77;28512;-82
2021/09/04 08:41:15;;;;;;;23.10;13.65;;;;;;;22.87;91.03;99269.79;4490722;77;28507;-82
2021/09/04 08:47:20;;;;;;;18.80;12.25;;;;;;;23.00;89.76;99277.16;4532001;77;28635;-82
2021/09/04 08:53:22;;;;;;;18.70;11.83;;;;;;;23.26;85.31;99270.53;4510346;76;28458;-81
2021/09/04 08:59:23;;;;;;;22.67;13.45;;;;;;;23.74;82.17;99274.35;4507354;76;28435;-87
2021/09/04 09:05:25;;;;;;;20.35;13.15;;;;;;;23.68;80.78;99279.95;4520247;76;28506;-86
2021/09/04 09:11:30;;;;;;;22.55;13.65;;;;;;;23.46;79.66;99284.91;4516271;76;28487;-84
2021/09/04 09:17:32;;;;;;;23.35;14.38;;;;;;;23.75;79.95;99280.09;4520814;77;28498;-81
2021/09/04 09:23:34;;;;;;;22.40;15.08;;;;;;;24.16;78.30;99272.72;4522837;76;28424;-82
2021/09/04 09:29:36;;;;;;;25.35;15.72;;;;;;;24.26;79.43;99277.94;4509552;77;28461;-82
2021/09/04 09:35:42;;;;;;;28.42;16.75;;;;;;;24.56;75.48;99272.70;4510361;77;28442;-82
2021/09/04 09:41:50;;;;;;;28.35;17.90;;;;;;;24.58;75.04;99273.77;4509195;77;28520;-81
2021/09/04 09:47:51;;;;;;;27.90;18.57;;;;;;;24.58;72.80;99270.47;4509658;76;28458;-80
2021/09/04 09:53:53;;;;;;;29.98;19.95;;;;;;;24.43;70.90;99279.14;4497279;77;28535;-81
2021/09/04 09:59:54;;;;;;;29.07;18.10;;;;;;;24.43;75.11;99276.39;4500256;77;28508;-81
2021/09/04 10:05:58;;;;;;;24.80;16.60;;;;;;;24.13;74.83;99281.05;4500643;76;28543;-81
2021/09/04 10:11:59;;;;;;;31.30;18.75;;;;;;;24.31;73.33;99267.37;4525587;76;28428;-81
2021/09/04 10:18:05;;;;;;;21.60;15.50;;;;;;;24.13;73.38;99287.92;4507606;77;28562;-82
2021/09/04 10:24:09;;;;;;;23.40;16.33;;;;;;;24.01;73.09;99283.55;4497331;77;34228;-81
2021/09/04 10:30:33;;;;;;;25.02;17.42;;;;;;;24.25;73.27;99283.77;4491414;78;28502;-82
2021/09/04 10:36:35;;;;;;;24.95;15.65;;;;;;;23.85;73.35;99278.45;4500701;77;28512;-82
2021/09/04 10:42:41;;;;;;;23.20;15.08;;;;;;;23.92;72.90;99285.69;4486910;77;28528;-82
2021/09/04 10:48:45;;;;;;;27.20;14.93;;;;;;;23.89;73.13;99275.89;4505014;77;28508;-82
2021/09/04 10:55:03;;;;;;;23.22;15.05;;;;;;;24.25;72.96;99274.15;4475918;77;28517;-82
2021/09/04 11:01:05;;;;;;;26.07;16.52;;;;;;;24.81;71.79;99269.00;4506254;77;28479;-82
2021/09/04 11:07:07;;;;;;;21.42;14.70;;;;;;;24.41;65.82;99275.91;4470137;77;28461;-82
2021/09/04 11:13:18;;;;;;;23.87;14.58;;;;;;;24.75;68.96;99282.61;4368071;79;28442;-81
2021/09/04 11:19:33;;;;;;;26.17;16.30;;;;;;;25.09;68.21;99280.27;4451630;78;28483;-82
2021/09/04 11:25:34;;;;;;;24.82;15.13;;;;;;;24.33;68.60;99278.88;4479951;78;28444;-82
2021/09/04 11:31:35;;;;;;;23.42;14.70;;;;;;;24.42;69.58;99270.09;4461651;78;28536;-82
2021/09/04 11:37:42;;;;;;;21.55;15.50;;;;;;;24.04;67.95;99258.23;4469248;77;28452;-82
2021/09/04 11:43:43;;;;;;;24.07;15.08;;;;;;;24.35;67.58;99267.00;4482631;77;28444;-81
2021/09/04 11:49:52;;;;;;;26.57;17.52;;;;;;;24.49;71.77;99266.88;4475730;77;28439;-82
2021/09/04 11:55:53;;;;;;;24.32;16.32;;;;;;;24.12;69.21;99271.75;4486381;77;28499;-82
2021/09/04 12:01:59;;;;;;;24.15;15.90;;;;;;;24.69;66.04;99269.58;4465413;76;28483;-81
2021/09/04 12:08:10;;;;;;;20.65;14.75;;;;;;;24.19;63.72;99270.16;4478573;77;28521;-79
2021/09/04 12:14:11;;;;;;;20.52;14.53;;;;;;;24.89;66.27;99270.95;4469107;78;28474;-80
2021/09/04 12:20:13;;;;;;;21.65;16.07;;;;;;;25.11;61.88;99268.36;4455008;78;28477;-80
2021/09/04 12:26:18;;;;;;;22.85;15.32;;;;;;;24.87;62.77;99269.06;4449935;78;28473;-81
2021/09/04 12:32:20;;;;;;;24.10;16.60;;;;;;;24.38;68.22;99272.42;4460009;78;28449;-80
2021/09/04 12:38:29;;;;;;;24.07;15.98;;;;;;;24.08;65.49;99265.52;4486653;77;28504;-82
2021/09/04 12:44:44;;;;;;;23.40;15.10;;;;;;;24.16;63.29;99267.23;4457031;78;28506;-81
2021/09/04 12:50:45;;;;;;;19.90;14.45;;;;;;;24.52;60.01;99257.98;4498909;78;28497;-81
2021/09/04 12:56:47;;;;;;;16.77;11.95;;;;;;;24.86;58.29;99263.33;4433869;78;28507;-82
2021/09/04 13:02:49;;;;;;;19.73;12.88;;;;;;;25.21;58.54;99279.05;4437869;78;28436;-81
2021/09/04 13:08:50;;;;;;;19.32;13.70;;;;;;;25.53;58.72;99266.52;4446640;78;28477;-80
2021/09/04 13:14:52;;;;;;;19.15;13.60;;;;;;;24.75;59.81;99270.23;4447756;77;28465;-80
2021/09/04 13:20:53;;;;;;;21.23;12.53;;;;;;;24.49;63.61;99286.12;4461712;77;28564;-82
2021/09/04 13:26:54;;;;;;;20.23;12.40;;;;;;;24.16;64.04;99272.72;4438251;78;28878;-82
2021/09/04 13:32:56;;;;;;;17.10;11.65;;;;;;;24.10;59.36;99272.05;4449208;78;28461;-81
2021/09/04 13:38:57;;;;;;;18.62;11.22;;;;;;;24.46;58.73;99262.83;4436789;78;28471;-81
2021/09/04 13:44:58;;;;;;;17.98;11.08;;;;;;;24.97;58.52;99255.59;4443675;78;28460;-83
2021/09/04 13:51:00;;;;;;;16.67;10.78;;;;;;;25.36;56.16;99248.03;4446756;77;28516;-82
2021/09/04 13:57:01;;;;;;;16.10;11.35;;;;;;;25.64;55.95;99248.52;4449549;78;28461;-81
2021/09/04 14:03:02;;;;;;;17.55;11.90;;;;;;;25.22;55.74;99246.86;4447118;78;28485;-82
2021/09/04 14:09:06;;;;;;;18.32;12.28;;;;;;;25.65;56.06;99245.19;4495345;78;28480;-82
2021/09/04 14:15:08;;;;;;;21.07;13.25;;;;;;;24.66;58.99;99253.74;4481922;77;28556;-81
2021/09/04 14:21:10;;;;;;;18.15;12.65;;;;;;;24.49;59.98;99250.39;4490031;77;28507;-81
2021/09/04 14:27:11;;;;;;;19.73;12.23;;;;;;;25.44;57.14;99244.47;4494503;77;28527;-81
2021/09/04 14:33:13;;;;;;;16.27;11.38;;;;;;;25.14;54.34;99243.77;4488296;77;28464;-81
2021/09/04 14:39:14;;;;;;;18.80;11.88;;;;;;;25.23;55.00;99241.01;4528061;77;28576;-82
2021/09/04 14:45:15;;;;;;;19.17;12.37;;;;;;;27.00;49.39;99245.30;4520962;77;28523;-80
2021/09/04 14:51:17;;;;;;;20.12;12.18;;;;;;;26.74;50.28;99244.88;4501496;78;28514;-81
2021/09/04 14:57:18;;;;;;;20.12;11.90;;;;;;;26.09;52.73;99250.56;4526066;77;28489;-80
2021/09/04 15:03:20;;;;;;;19.32;11.70;;;;;;;25.55;52.93;99247.14;4515406;77;28510;-78
2021/09/04 15:09:22;;;;;;;19.00;11.60;;;;;;;25.84;52.65;99247.58;4519121;78;28538;-84
2021/09/04 15:15:23;;;;;;;19.52;11.55;;;;;;;25.67;51.37;99240.16;4504220;77;28590;-82
2021/09/04 15:21:25;;;;;;;18.87;10.80;;;;;;;24.46;54.91;99246.89;4528377;76;28536;-82
2021/09/04 15:27:26;;;;;;;17.32;11.65;;;;;;;25.37;53.13;99244.97;4489797;77;28483;-82
2021/09/04 15:33:28;;;;;;;15.08;10.38;;;;;;;25.15;54.11;99251.47;4512090;77;28514;-82
2021/09/04 15:39:29;;;;;;;16.42;11.20;;;;;;;25.36;54.51;99246.66;4535078;76;28512;-83
2021/09/04 15:45:33;;;;;;;17.42;11.30;;;;;;;25.26;54.19;99254.14;4497325;77;28482;-83
2021/09/04 15:51:34;;;;;;;18.90;10.95;;;;;;;25.25;53.30;99250.32;4515033;77;28481;-86
2021/09/04 15:57:35;;;;;;;15.65;10.40;;;;;;;24.97;55.27;99247.89;4491270;77;28468;-85
2021/09/04 16:03:37;;;;;;;13.28;9.28;;;;;;;24.86;56.29;99252.33;4510625;77;28560;-85
2021/09/04 16:09:38;;;;;;;19.00;9.65;;;;;;;24.99;55.75;99245.06;4541816;76;28492;-85
2021/09/04 16:15:40;;;;;;;17.40;10.88;;;;;;;24.84;56.54;99249.10;4504446;77;28507;-84
2021/09/04 16:21:41;;;;;;;16.85;10.55;;;;;;;24.23;57.24;99254.67;4528403;77;28437;-83
2021/09/04 16:27:42;;;;;;;15.03;10.10;;;;;;;24.08;57.84;99248.22;4502454;77;28566;-86
2021/09/04 16:33:44;;;;;;;17.05;11.25;;;;;;;24.35;55.84;99245.02;4532061;77;28440;-85
2021/09/04 16:39:45;;;;;;;15.95;10.72;;;;;;;24.26;55.95;99249.67;4538424;77;28467;-83
2021/09/04 16:45:47;;;;;;;16.48;10.30;;;;;;;23.80;57.67;99240.17;4560330;76;28550;-84
2021/09/04 16:51:49;;;;;;;21.82;12.60;;;;;;;23.65;59.41;99243.54;4554968;76;28427;-85
2021/09/04 16:57:51;;;;;;;20.70;12.80;;;;;;;23.15;62.86;99255.44;4528116;76;28491;-85
2021/09/04 17:03:52;;;;;;;18.15;11.15;;;;;;;22.99;65.09;99265.95;4538364;76;28440;-85
2021/09/04 17:09:53;;;;;;;17.10;10.90;;;;;;;22.63;63.88;99274.94;4525839;76;28464;-83
2021/09/04 17:15:55;;;;;;;16.30;9.80;;;;;;;22.83;63.42;99273.70;4506601;76;28487;-82
2021/09/04 17:21:56;;;;;;;14.00;8.93;;;;;;;22.77;62.82;99280.41;4519097;77;28517;-80
2021/09/04 17:27:57;;;;;;;13.83;8.15;;;;;;;22.44;64.06;99288.18;4513531;77;28579;-82
2021/09/04 17:33:59;;;;;;;13.80;8.38;;;;;;;22.52;63.74;99298.43;4510882;77;28528;-84
2021/09/04 17:40:01;;;;;;;14.30;8.40;;;;;;;22.05;66.29;99298.47;4548321;77;28479;-80
2021/09/04 17:46:06;;;;;;;15.40;9.58;;;;;;;21.83;67.95;99308.16;4550257;76;28519;-83
2021/09/04 17:52:06;;;;;;;15.88;8.88;;;;;;;21.85;68.09;99321.55;4414300;78;28523;-79
2021/09/04 17:58:07;;;;;;;14.03;8.58;;;;;;;21.56;69.82;99330.73;4441967;79;28472;-80
2021/09/04 18:10:21;;;;;;;13.28;8.33;;;;;;;21.49;70.30;99351.63;4043279;86;28498;-81
2021/09/04 18:16:22;;;;;;;13.95;8.48;;;;;;;21.27;72.54;99362.61;4081189;87;28484;-85
2021/09/04 18:22:27;;;;;;;14.80;8.63;;;;;;;21.31;73.10;99369.67;4086219;87;28492;-79
2021/09/04 18:28:28;;;;;;;13.20;8.20;;;;;;;21.16;74.69;99385.16;4076475;87;28519;-79
2021/09/04 18:34:30;;;;;;;15.20;8.78;;;;;;;21.43;72.23;99393.28;3955123;89;28650;-81
2021/09/04 18:40:34;;;;;;;15.28;8.70;;;;;;;21.10;73.95;99399.19;3935938;89;28553;-81
2021/09/04 18:46:35;;;;;;;14.60;8.53;;;;;;;21.34;72.76;99403.25;4139905;83;28517;-80
2021/09/04 18:52:37;;;;;;;15.53;8.83;;;;;;;21.08;74.67;99412.34;4258927;79;28558;-82
2021/09/04 18:58:41;;;;;;;17.25;9.23;;;;;;;21.13;74.54;99419.09;4177782;84;28475;-82
2021/09/04 19:04:42;;;;;;;15.88;8.85;;;;;;;20.64;79.76;99427.28;4194605;85;28484;-83
2021/09/04 19:10:44;;;;;;;19.30;9.75;;;;;;;20.48;80.40;99430.15;4198986;83;28498;-84
2021/09/04 19:16:47;;;;;;;19.70;9.65;;;;;;;20.64;80.20;99436.84;4194718;85;28488;-84
2021/09/04 19:22:48;;;;;;;18.75;10.65;;;;;;;20.62;79.46;99442.58;4209815;84;28452;-82
2021/09/04 19:28:50;;;;;;;17.07;9.98;;;;;;;20.34;79.39;99447.75;4207549;83;28468;-83
2021/09/04 19:34:51;;;;;;;13.22;8.40;;;;;;;20.31;79.27;99454.36;4175345;83;28508;-85
2021/09/04 19:40:52;;;;;;;13.98;7.40;;;;;;;20.25;79.76;99467.77;4187074;85;28522;-85
2021/09/04 19:46:54;;;;;;;17.20;9.93;;;;;;;19.85;82.46;99482.20;4216730;83;28454;-84
2021/09/04 19:52:55;;;;;;;12.33;7.17;;;;;;;19.78;83.48;99478.95;4212451;83;28487;-85
2021/09/04 19:58:56;;;;;;;13.18;7.37;;;;;;;19.94;80.99;99477.55;4213456;83;28436;-83
2021/09/04 20:04:58;;;;;;;11.73;6.70;;;;;;;19.62;82.94;99486.41;4223549;83;28492;-84
2021/09/04 20:10:59;;;;;;;12.75;6.83;;;;;;;19.32;85.41;99490.93;4207351;83;28430;-85
2021/09/04 20:17:03;;;;;;;11.80;6.55;;;;;;;19.02;87.22;99501.62;4222933;82;28469;-84
2021/09/04 20:23:10;;;;;;;15.93;6.60;;;;;;;19.08;85.74;99505.98;4228348;83;28473;-83
2021/09/04 20:29:11;;;;;;;12.28;5.47;;;;;;;18.76;87.60;99497.57;4253264;83;28527;-81
2021/09/04 20:35:28;;;;;;;9.73;5.10;;;;;;;18.79;85.73;99516.08;4173194;84;28489;-82
2021/09/04 20:41:22;;;;;;;12.82;6.00;;;;;;;18.52;85.11;99521.25;4122398;85;28510;-83
2021/09/04 20:47:23;;;;;;;9.73;5.33;;;;;;;18.51;84.23;99533.80;4147356;85;28488;-82
2021/09/04 20:53:24;;;;;;;10.10;4.90;;;;;;;18.71;81.20;99534.89;4119047;84;28500;-82
2021/09/04 20:59:26;;;;;;;9.05;4.87;;;;;;;18.43;83.36;99539.78;4099664;85;28496;-83
2021/09/04 21:05:27;;;;;;;9.50;5.03;;;;;;;18.59;82.14;99546.05;4024176;87;28489;-83
2021/09/04 21:11:28;;;;;;;9.80;4.80;;;;;;;18.52;81.13;99546.32;4037097;86;28447;-83
2021/09/04 21:17:30;;;;;;;9.18;5.12;;;;;;;18.51;80.67;99555.58;4043167;86;28497;-83
2021/09/04 21:23:31;;;;;;;11.10;5.08;;;;;;;18.42;82.12;99559.36;4176042;83;28450;-83
2021/09/04 21:29:33;;;;;;;9.10;4.85;;;;;;;18.41;81.62;99564.54;4179091;83;28467;-83
2021/09/04 21:35:34;;;;;;;11.60;4.78;;;;;;;18.00;84.41;99569.86;4175556;83;28461;-84
2021/09/04 21:41:36;;;;;;;9.43;4.28;;;;;;;18.43;80.59;99575.17;4169146;83;28484;-84
2021/09/04 21:47:38;;;;;;;7.17;4.15;;;;;;;18.47;80.39;99576.25;4183132;83;28486;-84
2021/09/04 21:53:39;;;;;;;9.60;5.25;;;;;;;18.42;80.46;99574.34;4210075;81;28468;-85
2021/09/04 21:59:41;;;;;;;10.68;4.70;;;;;;;18.37;79.77;99583.31;4265822;81;28497;-84
2021/09/04 22:05:43;;;;;;;9.23;5.00;;;;;;;18.25;81.15;99589.55;4326987;81;28541;-84
2021/09/04 22:11:44;;;;;;;9.98;4.42;;;;;;;18.16;81.77;99592.52;4329134;81;28465;-85
2021/09/04 22:17:45;;;;;;;10.53;4.35;;;;;;;18.15;81.09;99604.50;4306635;81;28468;-85
2021/09/04 22:23:49;;;;;;;12.60;4.53;;;;;;;17.82;83.53;99604.64;4299862;81;28932;-84
2021/09/04 22:29:50;;;;;;;9.93;4.92;;;;;;;17.98;81.18;99602.23;4284968;81;28475;-84
2021/09/04 22:35:52;;;;;;;9.50;4.53;;;;;;;17.80;82.43;99605.42;4298179;81;28506;-85
2021/09/04 22:41:54;;;;;;;9.40;4.00;;;;;;;17.78;81.94;99605.70;4310468;81;28504;-84
2021/09/04 22:47:56;;;;;;;9.23;3.95;;;;;;;17.83;81.08;99604.91;4315065;81;28445;-85
2021/09/04 22:53:57;;;;;;;9.48;4.17;;;;;;;17.99;79.91;99607.15;4277491;81;28493;-84
2021/09/04 22:59:59;;;;;;;10.78;4.25;;;;;;;17.79;81.29;99603.27;4254999;82;28419;-85
2021/09/04 23:06:01;;;;;;;8.28;4.37;;;;;;;17.73;81.17;99600.78;4281576;82;28517;-85
2021/09/04 23:12:05;;;;;;;10.13;4.53;;;;;;;17.55;82.28;99612.37;4254485;82;28452;-84
2021/09/04 23:18:07;;;;;;;7.50;3.92;;;;;;;17.22;84.92;99609.72;4238504;84;28475;-84
2021/09/04 23:24:09;;;;;;;10.20;4.25;;;;;;;17.14;85.21;99610.23;4237999;82;28494;-84
2021/09/04 23:30:14;;;;;;;10.20;4.53;;;;;;;16.94;87.80;99613.05;4237636;84;28508;-83
2021/09/04 23:36:15;;;;;;;8.60;4.20;;;;;;;16.86;87.10;99612.16;4239748;84;28527;-84
2021/09/04 23:42:17;;;;;;;10.05;5.03;;;;;;;17.25;83.60;99608.39;4237275;82;28530;-84
2021/09/04 23:48:19;;;;;;;10.93;4.90;;;;;;;16.92;86.50;99613.02;4238057;84;28499;-84
2021/09/04 23:54:20;;;;;;;9.30;4.42;;;;;;;16.51;92.97;99616.20;4268892;82;28490;-84
